sensor_id;sensor_type;location;lat;lon;timestamp;P1;durP1;ratioP1;P2;durP2;ratioP2
48516;SDS011;34310;51.904;4.256;2022-08-19T00:02:12;2.83;;;2.15;;
48516;SDS011;34310;51.904;4.256;2022-08-19T00:04:40;2.55;;;2.03;;
48516;SDS011;34310;51.904;4.256;2022-08-19T00:07:07;2.60;;;2.15;;
48516;SDS011;34310;51.904;4.256;2022-08-19T00:09:35;3.10;;;2.05;;
48516;SDS011;34310;51.904;4.256;2022-08-19T00:12:02;2.40;;;2.17;;
48516;SDS011;34310;51.904;4.256;2022-08-19T00:14:30;3.45;;;2.30;;
48516;SDS011;34310;51.904;4.256;2022-08-19T00:16:58;2.40;;;2.17;;
48516;SDS011;34310;51.904;4.256;2022-08-19T00:19:27;3.17;;;2.10;;
48516;SDS011;34310;51.904;4.256;2022-08-19T00:21:54;2.60;;;1.95;;
48516;SDS011;34310;51.904;4.256;2022-08-19T00:24:22;2.47;;;2.08;;
48516;SDS011;34310;51.904;4.256;2022-08-19T00:26:51;2.42;;;2.20;;
48516;SDS011;34310;51.904;4.256;2022-08-19T00:29:20;2.53;;;2.30;;
48516;SDS011;34310;51.904;4.256;2022-08-19T00:31:49;2.22;;;2.03;;
48516;SDS011;34310;51.904;4.256;2022-08-19T00:34:20;2.58;;;2.20;;
48516;SDS011;34310;51.904;4.256;2022-08-19T00:36:49;4.07;;;2.45;;
48516;SDS011;34310;51.904;4.256;2022-08-19T00:39:16;3.60;;;2.15;;
48516;SDS011;34310;51.904;4.256;2022-08-19T00:41:44;3.30;;;1.90;;
48516;SDS011;34310;51.904;4.256;2022-08-19T00:44:19;3.20;;;2.35;;
48516;SDS011;34310;51.904;4.256;2022-08-19T00:46:53;3.17;;;2.20;;
48516;SDS011;34310;51.904;4.256;2022-08-19T00:51:51;3.25;;;2.35;;
48516;SDS011;34310;51.904;4.256;2022-08-19T00:54:23;3.75;;;2.30;;
48516;SDS011;34310;51.904;4.256;2022-08-19T00:56:56;2.70;;;2.50;;
48516;SDS011;34310;51.904;4.256;2022-08-19T00:59:25;3.80;;;2.75;;
48516;SDS011;34310;51.904;4.256;2022-08-19T01:02:15;3.17;;;2.88;;
48516;SDS011;34310;51.904;4.256;2022-08-19T01:04:43;3.75;;;2.95;;
48516;SDS011;34310;51.904;4.256;2022-08-19T01:07:11;3.35;;;3.05;;
48516;SDS011;34310;51.904;4.256;2022-08-19T01:09:42;4.97;;;3.63;;
48516;SDS011;34310;51.904;4.256;2022-08-19T01:12:10;3.40;;;2.85;;
48516;SDS011;34310;51.904;4.256;2022-08-19T01:14:38;4.25;;;3.47;;
48516;SDS011;34310;51.904;4.256;2022-08-19T01:17:07;4.47;;;3.45;;
48516;SDS011;34310;51.904;4.256;2022-08-19T01:19:38;4.53;;;3.40;;
48516;SDS011;34310;51.904;4.256;2022-08-19T01:24:59;4.28;;;3.88;;
48516;SDS011;34310;51.904;4.256;2022-08-19T01:27:36;4.32;;;3.53;;
48516;SDS011;34310;51.904;4.256;2022-08-19T01:30:15;3.95;;;3.65;;
48516;SDS011;34310;51.904;4.256;2022-08-19T01:32:44;5.20;;;4.32;;
48516;SDS011;34310;51.904;4.256;2022-08-19T01:35:12;6.50;;;4.40;;
48516;SDS011;34310;51.904;4.256;2022-08-19T01:37:48;4.07;;;3.65;;
48516;SDS011;34310;51.904;4.256;2022-08-19T01:40:21;6.53;;;4.75;;
48516;SDS011;34310;51.904;4.256;2022-08-19T01:42:52;4.53;;;4.10;;
48516;SDS011;34310;51.904;4.256;2022-08-19T01:45:21;5.00;;;4.50;;
48516;SDS011;34310;51.904;4.256;2022-08-19T01:47:51;5.05;;;4.55;;
48516;SDS011;34310;51.904;4.256;2022-08-19T01:50:27;6.00;;;4.68;;
48516;SDS011;34310;51.904;4.256;2022-08-19T01:52:56;4.43;;;4.03;;
48516;SDS011;34310;51.904;4.256;2022-08-19T01:55:32;4.88;;;4.40;;
48516;SDS011;34310;51.904;4.256;2022-08-19T01:58:07;5.45;;;4.60;;
48516;SDS011;34310;51.904;4.256;2022-08-19T02:00:38;5.32;;;4.38;;
48516;SDS011;34310;51.904;4.256;2022-08-19T02:03:05;5.45;;;4.65;;
48516;SDS011;34310;51.904;4.256;2022-08-19T02:05:35;5.30;;;4.80;;
48516;SDS011;34310;51.904;4.256;2022-08-19T02:08:04;5.90;;;5.30;;
48516;SDS011;34310;51.904;4.256;2022-08-19T02:10:32;5.50;;;5.00;;
48516;SDS011;34310;51.904;4.256;2022-08-19T02:12:59;6.30;;;5.40;;
48516;SDS011;34310;51.904;4.256;2022-08-19T02:15:27;6.60;;;5.50;;
48516;SDS011;34310;51.904;4.256;2022-08-19T02:17:54;6.45;;;5.75;;
48516;SDS011;34310;51.904;4.256;2022-08-19T02:20:21;7.30;;;5.93;;
48516;SDS011;34310;51.904;4.256;2022-08-19T02:22:49;6.10;;;5.50;;
48516;SDS011;34310;51.904;4.256;2022-08-19T02:25:16;6.10;;;5.40;;
48516;SDS011;34310;51.904;4.256;2022-08-19T02:27:44;7.40;;;5.72;;
48516;SDS011;34310;51.904;4.256;2022-08-19T02:30:16;6.95;;;5.80;;
48516;SDS011;34310;51.904;4.256;2022-08-19T02:32:45;8.68;;;6.20;;
48516;SDS011;34310;51.904;4.256;2022-08-19T02:35:13;6.60;;;5.90;;
48516;SDS011;34310;51.904;4.256;2022-08-19T02:37:41;6.90;;;6.13;;
48516;SDS011;34310;51.904;4.256;2022-08-19T02:40:28;7.30;;;6.20;;
48516;SDS011;34310;51.904;4.256;2022-08-19T02:43:04;6.75;;;6.05;;
48516;SDS011;34310;51.904;4.256;2022-08-19T02:45:34;7.05;;;6.30;;
48516;SDS011;34310;51.904;4.256;2022-08-19T02:48:06;7.32;;;6.63;;
48516;SDS011;34310;51.904;4.256;2022-08-19T02:50:46;7.47;;;6.60;;
48516;SDS011;34310;51.904;4.256;2022-08-19T02:53:22;9.65;;;6.95;;
48516;SDS011;34310;51.904;4.256;2022-08-19T02:55:52;8.63;;;7.18;;
48516;SDS011;34310;51.904;4.256;2022-08-19T02:58:20;6.90;;;6.20;;
48516;SDS011;34310;51.904;4.256;2022-08-19T03:00:49;9.50;;;7.00;;
48516;SDS011;34310;51.904;4.256;2022-08-19T03:03:18;9.18;;;7.35;;
48516;SDS011;34310;51.904;4.256;2022-08-19T03:05:46;9.13;;;7.63;;
48516;SDS011;34310;51.904;4.256;2022-08-19T03:08:22;9.23;;;7.80;;
48516;SDS011;34310;51.904;4.256;2022-08-19T03:10:51;8.82;;;7.78;;
48516;SDS011;34310;51.904;4.256;2022-08-19T03:13:19;9.07;;;7.72;;
48516;SDS011;34310;51.904;4.256;2022-08-19T03:15:47;10.30;;;9.18;;
48516;SDS011;34310;51.904;4.256;2022-08-19T03:18:15;10.13;;;8.65;;
48516;SDS011;34310;51.904;4.256;2022-08-19T03:20:50;11.18;;;9.93;;
48516;SDS011;34310;51.904;4.256;2022-08-19T03:23:22;10.93;;;9.00;;
48516;SDS011;34310;51.904;4.256;2022-08-19T03:25:50;10.15;;;8.98;;
48516;SDS011;34310;51.904;4.256;2022-08-19T03:28:39;10.15;;;9.10;;
48516;SDS011;34310;51.904;4.256;2022-08-19T03:31:13;12.20;;;9.52;;
48516;SDS011;34310;51.904;4.256;2022-08-19T03:34:00;10.55;;;9.45;;
48516;SDS011;34310;51.904;4.256;2022-08-19T03:36:28;12.27;;;10.60;;
48516;SDS011;34310;51.904;4.256;2022-08-19T03:38:57;12.52;;;10.40;;
48516;SDS011;34310;51.904;4.256;2022-08-19T03:41:28;11.93;;;10.07;;
48516;SDS011;34310;51.904;4.256;2022-08-19T03:44:12;12.25;;;10.07;;
48516;SDS011;34310;51.904;4.256;2022-08-19T03:46:43;13.38;;;10.88;;
48516;SDS011;34310;51.904;4.256;2022-08-19T03:49:11;11.70;;;10.23;;
48516;SDS011;34310;51.904;4.256;2022-08-19T03:51:40;14.27;;;11.48;;
48516;SDS011;34310;51.904;4.256;2022-08-19T03:54:09;11.88;;;9.93;;
48516;SDS011;34310;51.904;4.256;2022-08-19T03:56:39;12.80;;;10.55;;
48516;SDS011;34310;51.904;4.256;2022-08-19T03:59:09;12.38;;;10.73;;
48516;SDS011;34310;51.904;4.256;2022-08-19T04:01:39;13.20;;;11.27;;
48516;SDS011;34310;51.904;4.256;2022-08-19T04:04:07;11.57;;;10.25;;
48516;SDS011;34310;51.904;4.256;2022-08-19T04:06:35;13.07;;;10.50;;
48516;SDS011;34310;51.904;4.256;2022-08-19T04:09:07;11.40;;;10.20;;
48516;SDS011;34310;51.904;4.256;2022-08-19T04:11:38;11.15;;;9.82;;
48516;SDS011;34310;51.904;4.256;2022-08-19T04:14:14;12.38;;;10.00;;
48516;SDS011;34310;51.904;4.256;2022-08-19T04:16:44;11.50;;;10.30;;
48516;SDS011;34310;51.904;4.256;2022-08-19T04:19:12;11.20;;;9.85;;
48516;SDS011;34310;51.904;4.256;2022-08-19T04:21:43;13.40;;;10.82;;
48516;SDS011;34310;51.904;4.256;2022-08-19T04:24:12;12.93;;;9.90;;
48516;SDS011;34310;51.904;4.256;2022-08-19T04:26:40;12.80;;;9.98;;
48516;SDS011;34310;51.904;4.256;2022-08-19T04:29:15;11.23;;;9.68;;
48516;SDS011;34310;51.904;4.256;2022-08-19T04:31:48;11.65;;;9.60;;
48516;SDS011;34310;51.904;4.256;2022-08-19T04:34:17;10.88;;;9.18;;
48516;SDS011;34310;51.904;4.256;2022-08-19T04:36:48;12.30;;;10.48;;
48516;SDS011;34310;51.904;4.256;2022-08-19T04:39:18;11.00;;;9.82;;
48516;SDS011;34310;51.904;4.256;2022-08-19T04:41:47;10.60;;;9.35;;
48516;SDS011;34310;51.904;4.256;2022-08-19T04:44:34;12.30;;;9.10;;
48516;SDS011;34310;51.904;4.256;2022-08-19T04:47:11;10.07;;;8.90;;
48516;SDS011;34310;51.904;4.256;2022-08-19T04:49:39;9.80;;;8.57;;
48516;SDS011;34310;51.904;4.256;2022-08-19T04:52:07;10.93;;;9.07;;
48516;SDS011;34310;51.904;4.256;2022-08-19T04:54:35;11.35;;;9.10;;
48516;SDS011;34310;51.904;4.256;2022-08-19T04:57:06;10.88;;;8.45;;
48516;SDS011;34310;51.904;4.256;2022-08-19T04:59:37;10.25;;;8.43;;
48516;SDS011;34310;51.904;4.256;2022-08-19T05:02:06;11.07;;;9.32;;
48516;SDS011;34310;51.904;4.256;2022-08-19T05:04:35;9.15;;;8.15;;
48516;SDS011;34310;51.904;4.256;2022-08-19T05:07:06;9.35;;;8.38;;
48516;SDS011;34310;51.904;4.256;2022-08-19T05:09:34;9.65;;;8.55;;
48516;SDS011;34310;51.904;4.256;2022-08-19T05:12:22;9.68;;;8.52;;
48516;SDS011;34310;51.904;4.256;2022-08-19T05:14:54;10.48;;;8.40;;
48516;SDS011;34310;51.904;4.256;2022-08-19T05:17:24;10.00;;;8.13;;
48516;SDS011;34310;51.904;4.256;2022-08-19T05:19:55;10.18;;;8.35;;
48516;SDS011;34310;51.904;4.256;2022-08-19T05:22:42;9.48;;;8.23;;
48516;SDS011;34310;51.904;4.256;2022-08-19T05:25:12;10.65;;;8.57;;
48516;SDS011;34310;51.904;4.256;2022-08-19T05:27:45;9.70;;;8.02;;
48516;SDS011;34310;51.904;4.256;2022-08-19T05:30:13;10.23;;;8.02;;
48516;SDS011;34310;51.904;4.256;2022-08-19T05:32:41;8.38;;;7.40;;
48516;SDS011;34310;51.904;4.256;2022-08-19T05:35:09;8.98;;;7.68;;
48516;SDS011;34310;51.904;4.256;2022-08-19T05:37:37;9.57;;;7.85;;
48516;SDS011;34310;51.904;4.256;2022-08-19T05:40:07;9.50;;;7.45;;
48516;SDS011;34310;51.904;4.256;2022-08-19T05:42:35;8.43;;;6.93;;
48516;SDS011;34310;51.904;4.256;2022-08-19T05:45:03;8.82;;;7.32;;
48516;SDS011;34310;51.904;4.256;2022-08-19T05:47:31;8.68;;;6.70;;
48516;SDS011;34310;51.904;4.256;2022-08-19T05:49:59;10.48;;;7.43;;
48516;SDS011;34310;51.904;4.256;2022-08-19T05:52:30;7.75;;;6.72;;
48516;SDS011;34310;51.904;4.256;2022-08-19T05:54:58;9.48;;;7.50;;
48516;SDS011;34310;51.904;4.256;2022-08-19T05:57:26;8.82;;;6.80;;
48516;SDS011;34310;51.904;4.256;2022-08-19T05:59:55;9.32;;;6.50;;
48516;SDS011;34310;51.904;4.256;2022-08-19T06:02:25;9.52;;;6.90;;
48516;SDS011;34310;51.904;4.256;2022-08-19T06:04:53;9.60;;;7.05;;
48516;SDS011;34310;51.904;4.256;2022-08-19T06:07:20;9.38;;;8.05;;
48516;SDS011;34310;51.904;4.256;2022-08-19T06:09:48;10.02;;;7.40;;
48516;SDS011;34310;51.904;4.256;2022-08-19T06:12:26;9.25;;;7.25;;
48516;SDS011;34310;51.904;4.256;2022-08-19T06:14:57;9.18;;;7.65;;
48516;SDS011;34310;51.904;4.256;2022-08-19T06:17:27;9.55;;;7.88;;
48516;SDS011;34310;51.904;4.256;2022-08-19T06:19:57;9.02;;;7.05;;
48516;SDS011;34310;51.904;4.256;2022-08-19T06:22:26;8.70;;;7.10;;
48516;SDS011;34310;51.904;4.256;2022-08-19T06:24:54;8.80;;;7.05;;
48516;SDS011;34310;51.904;4.256;2022-08-19T06:27:22;9.80;;;8.27;;
48516;SDS011;34310;51.904;4.256;2022-08-19T06:29:50;10.10;;;8.10;;
48516;SDS011;34310;51.904;4.256;2022-08-19T06:32:17;11.10;;;7.85;;
48516;SDS011;34310;51.904;4.256;2022-08-19T06:34:45;9.88;;;8.85;;
48516;SDS011;34310;51.904;4.256;2022-08-19T06:37:13;10.15;;;8.55;;
48516;SDS011;34310;51.904;4.256;2022-08-19T06:39:41;10.82;;;8.13;;
48516;SDS011;34310;51.904;4.256;2022-08-19T06:42:11;9.40;;;8.40;;
48516;SDS011;34310;51.904;4.256;2022-08-19T06:44:43;9.30;;;7.30;;
48516;SDS011;34310;51.904;4.256;2022-08-19T06:47:18;9.13;;;7.10;;
48516;SDS011;34310;51.904;4.256;2022-08-19T06:49:52;9.38;;;6.40;;
48516;SDS011;34310;51.904;4.256;2022-08-19T06:52:32;9.45;;;7.07;;
48516;SDS011;34310;51.904;4.256;2022-08-19T06:55:02;8.82;;;6.80;;
48516;SDS011;34310;51.904;4.256;2022-08-19T06:57:31;9.88;;;7.60;;
48516;SDS011;34310;51.904;4.256;2022-08-19T06:59:59;9.38;;;7.50;;
48516;SDS011;34310;51.904;4.256;2022-08-19T07:02:27;11.52;;;8.90;;
48516;SDS011;34310;51.904;4.256;2022-08-19T07:04:55;10.23;;;9.07;;
48516;SDS011;34310;51.904;4.256;2022-08-19T07:07:32;15.85;;;12.23;;
48516;SDS011;34310;51.904;4.256;2022-08-19T07:10:00;14.90;;;11.20;;
48516;SDS011;34310;51.904;4.256;2022-08-19T07:12:32;15.90;;;12.30;;
48516;SDS011;34310;51.904;4.256;2022-08-19T07:15:06;15.93;;;13.10;;
48516;SDS011;34310;51.904;4.256;2022-08-19T07:17:37;16.93;;;12.53;;
48516;SDS011;34310;51.904;4.256;2022-08-19T07:20:07;12.98;;;10.80;;
48516;SDS011;34310;51.904;4.256;2022-08-19T07:22:37;15.07;;;11.75;;
48516;SDS011;34310;51.904;4.256;2022-08-19T07:25:07;16.27;;;12.40;;
48516;SDS011;34310;51.904;4.256;2022-08-19T07:27:35;13.95;;;10.60;;
48516;SDS011;34310;51.904;4.256;2022-08-19T07:30:06;15.35;;;12.30;;
48516;SDS011;34310;51.904;4.256;2022-08-19T07:32:37;15.88;;;11.98;;
48516;SDS011;34310;51.904;4.256;2022-08-19T07:35:05;15.50;;;11.57;;
48516;SDS011;34310;51.904;4.256;2022-08-19T07:37:33;14.30;;;11.38;;
48516;SDS011;34310;51.904;4.256;2022-08-19T07:40:03;15.73;;;12.15;;
48516;SDS011;34310;51.904;4.256;2022-08-19T07:42:33;15.75;;;12.48;;
48516;SDS011;34310;51.904;4.256;2022-08-19T07:45:00;17.10;;;13.20;;
48516;SDS011;34310;51.904;4.256;2022-08-19T07:47:28;16.08;;;12.55;;
48516;SDS011;34310;51.904;4.256;2022-08-19T07:50:17;14.20;;;12.00;;
48516;SDS011;34310;51.904;4.256;2022-08-19T07:52:46;14.50;;;12.02;;
48516;SDS011;34310;51.904;4.256;2022-08-19T07:55:18;17.10;;;13.35;;
48516;SDS011;34310;51.904;4.256;2022-08-19T07:58:09;16.80;;;13.43;;
48516;SDS011;34310;51.904;4.256;2022-08-19T08:00:38;13.43;;;11.63;;
48516;SDS011;34310;51.904;4.256;2022-08-19T08:03:07;15.10;;;11.88;;
48516;SDS011;34310;51.904;4.256;2022-08-19T08:05:34;13.70;;;11.60;;
48516;SDS011;34310;51.904;4.256;2022-08-19T08:08:31;13.70;;;11.52;;
48516;SDS011;34310;51.904;4.256;2022-08-19T08:11:01;13.68;;;11.57;;
48516;SDS011;34310;51.904;4.256;2022-08-19T08:13:33;14.95;;;12.85;;
48516;SDS011;34310;51.904;4.256;2022-08-19T08:16:04;15.68;;;12.75;;
48516;SDS011;34310;51.904;4.256;2022-08-19T08:18:39;14.23;;;12.52;;
48516;SDS011;34310;51.904;4.256;2022-08-19T08:21:15;16.35;;;13.00;;
48516;SDS011;34310;51.904;4.256;2022-08-19T08:23:43;15.82;;;13.77;;
48516;SDS011;34310;51.904;4.256;2022-08-19T08:26:10;19.05;;;15.48;;
48516;SDS011;34310;51.904;4.256;2022-08-19T08:28:41;22.80;;;14.65;;
48516;SDS011;34310;51.904;4.256;2022-08-19T08:31:14;18.95;;;14.52;;
48516;SDS011;34310;51.904;4.256;2022-08-19T08:33:42;20.30;;;14.52;;
48516;SDS011;34310;51.904;4.256;2022-08-19T08:36:10;19.05;;;13.00;;
48516;SDS011;34310;51.904;4.256;2022-08-19T08:38:40;16.33;;;12.65;;
48516;SDS011;34310;51.904;4.256;2022-08-19T08:43:57;18.55;;;13.13;;
48516;SDS011;34310;51.904;4.256;2022-08-19T08:46:27;16.63;;;13.23;;
48516;SDS011;34310;51.904;4.256;2022-08-19T08:49:39;19.70;;;13.55;;
48516;SDS011;34310;51.904;4.256;2022-08-19T08:52:26;17.10;;;13.25;;
48516;SDS011;34310;51.904;4.256;2022-08-19T08:54:58;17.55;;;13.77;;
48516;SDS011;34310;51.904;4.256;2022-08-19T08:58:24;16.73;;;13.85;;
48516;SDS011;34310;51.904;4.256;2022-08-19T09:00:33;17.00;;;11.02;;
48516;SDS011;34310;51.904;4.256;2022-08-19T09:03:06;15.60;;;10.68;;
48516;SDS011;34310;51.904;4.256;2022-08-19T09:09:46;19.88;;;7.75;;
48516;SDS011;34310;51.904;4.256;2022-08-19T09:15:00;9.63;;;5.38;;
48516;SDS011;34310;51.904;4.256;2022-08-19T09:17:34;9.35;;;4.95;;
48516;SDS011;34310;51.904;4.256;2022-08-19T09:20:11;7.97;;;4.25;;
48516;SDS011;34310;51.904;4.256;2022-08-19T09:22:45;6.78;;;4.22;;
48516;SDS011;34310;51.904;4.256;2022-08-19T09:25:16;6.60;;;3.90;;
48516;SDS011;34310;51.904;4.256;2022-08-19T09:27:54;8.57;;;3.30;;
48516;SDS011;34310;51.904;4.256;2022-08-19T09:30:31;4.88;;;3.03;;
48516;SDS011;34310;51.904;4.256;2022-08-19T09:33:00;6.53;;;3.13;;
48516;SDS011;34310;51.904;4.256;2022-08-19T09:35:28;13.88;;;3.45;;
48516;SDS011;34310;51.904;4.256;2022-08-19T09:37:56;7.53;;;3.08;;
48516;SDS011;34310;51.904;4.256;2022-08-19T09:40:28;7.38;;;3.30;;
48516;SDS011;34310;51.904;4.256;2022-08-19T09:43:03;6.72;;;2.90;;
48516;SDS011;34310;51.904;4.256;2022-08-19T09:45:38;6.97;;;2.83;;
48516;SDS011;34310;51.904;4.256;2022-08-19T09:48:06;13.07;;;3.42;;
48516;SDS011;34310;51.904;4.256;2022-08-19T09:50:34;8.07;;;2.58;;
48516;SDS011;34310;51.904;4.256;2022-08-19T09:53:17;14.52;;;2.78;;
48516;SDS011;34310;51.904;4.256;2022-08-19T09:55:45;6.40;;;2.20;;
48516;SDS011;34310;51.904;4.256;2022-08-19T09:58:12;8.82;;;2.53;;
48516;SDS011;34310;51.904;4.256;2022-08-19T10:00:39;10.70;;;2.53;;
48516;SDS011;34310;51.904;4.256;2022-08-19T10:03:07;9.85;;;2.50;;
48516;SDS011;34310;51.904;4.256;2022-08-19T10:05:34;5.90;;;2.20;;
48516;SDS011;34310;51.904;4.256;2022-08-19T10:08:30;8.50;;;2.05;;
48516;SDS011;34310;51.904;4.256;2022-08-19T10:11:00;9.45;;;2.17;;
48516;SDS011;34310;51.904;4.256;2022-08-19T10:13:49;7.15;;;1.92;;
48516;SDS011;34310;51.904;4.256;2022-08-19T10:16:18;6.88;;;1.98;;
48516;SDS011;34310;51.904;4.256;2022-08-19T10:18:55;8.73;;;1.80;;
48516;SDS011;34310;51.904;4.256;2022-08-19T10:21:25;5.05;;;1.50;;
48516;SDS011;34310;51.904;4.256;2022-08-19T10:23:58;8.48;;;1.60;;
48516;SDS011;34310;51.904;4.256;2022-08-19T10:26:29;4.65;;;1.58;;
48516;SDS011;34310;51.904;4.256;2022-08-19T10:28:58;4.60;;;1.40;;
48516;SDS011;34310;51.904;4.256;2022-08-19T10:31:28;4.00;;;1.52;;
48516;SDS011;34310;51.904;4.256;2022-08-19T10:34:17;4.47;;;1.40;;
48516;SDS011;34310;51.904;4.256;2022-08-19T10:36:52;3.85;;;1.40;;
48516;SDS011;34310;51.904;4.256;2022-08-19T10:39:25;3.97;;;1.25;;
48516;SDS011;34310;51.904;4.256;2022-08-19T10:41:57;3.10;;;1.20;;
48516;SDS011;34310;51.904;4.256;2022-08-19T10:44:25;5.07;;;1.27;;
48516;SDS011;34310;51.904;4.256;2022-08-19T10:46:58;4.43;;;1.20;;
48516;SDS011;34310;51.904;4.256;2022-08-19T10:49:26;5.13;;;1.13;;
48516;SDS011;34310;51.904;4.256;2022-08-19T10:51:54;4.10;;;1.00;;
48516;SDS011;34310;51.904;4.256;2022-08-19T10:54:46;4.65;;;1.08;;
48516;SDS011;34310;51.904;4.256;2022-08-19T10:57:33;3.78;;;1.42;;
48516;SDS011;34310;51.904;4.256;2022-08-19T11:00:21;3.88;;;1.48;;
48516;SDS011;34310;51.904;4.256;2022-08-19T11:02:50;8.98;;;1.73;;
48516;SDS011;34310;51.904;4.256;2022-08-19T11:05:17;3.97;;;1.20;;
48516;SDS011;34310;51.904;4.256;2022-08-19T11:07:49;3.88;;;1.33;;
48516;SDS011;34310;51.904;4.256;2022-08-19T11:10:18;4.88;;;1.40;;
48516;SDS011;34310;51.904;4.256;2022-08-19T11:12:48;5.63;;;1.25;;
48516;SDS011;34310;51.904;4.256;2022-08-19T11:15:19;5.22;;;0.95;;
48516;SDS011;34310;51.904;4.256;2022-08-19T11:17:46;14.45;;;2.00;;
48516;SDS011;34310;51.904;4.256;2022-08-19T11:20:14;58.95;;;4.07;;
48516;SDS011;34310;51.904;4.256;2022-08-19T11:22:42;266.30;;;15.00;;
48516;SDS011;34310;51.904;4.256;2022-08-19T11:25:10;358.25;;;20.17;;
48516;SDS011;34310;51.904;4.256;2022-08-19T11:27:40;262.88;;;16.23;;
48516;SDS011;34310;51.904;4.256;2022-08-19T11:30:12;250.73;;;15.00;;
48516;SDS011;34310;51.904;4.256;2022-08-19T11:32:41;214.77;;;13.30;;
48516;SDS011;34310;51.904;4.256;2022-08-19T11:35:14;164.25;;;10.38;;
48516;SDS011;34310;51.904;4.256;2022-08-19T11:37:42;128.70;;;9.27;;
48516;SDS011;34310;51.904;4.256;2022-08-19T11:40:09;109.75;;;7.50;;
48516;SDS011;34310;51.904;4.256;2022-08-19T11:42:37;87.50;;;7.30;;
48516;SDS011;34310;51.904;4.256;2022-08-19T11:45:30;88.03;;;5.95;;
48516;SDS011;34310;51.904;4.256;2022-08-19T11:47:58;58.35;;;5.40;;
48516;SDS011;34310;51.904;4.256;2022-08-19T11:50:25;44.22;;;4.25;;
48516;SDS011;34310;51.904;4.256;2022-08-19T11:52:53;35.88;;;4.57;;
48516;SDS011;34310;51.904;4.256;2022-08-19T11:55:22;30.58;;;3.75;;
48516;SDS011;34310;51.904;4.256;2022-08-19T11:57:50;23.83;;;3.90;;
48516;SDS011;34310;51.904;4.256;2022-08-19T12:00:18;20.70;;;2.75;;
48516;SDS011;34310;51.904;4.256;2022-08-19T12:02:45;20.77;;;2.92;;
48516;SDS011;34310;51.904;4.256;2022-08-19T12:05:13;13.70;;;2.22;;
48516;SDS011;34310;51.904;4.256;2022-08-19T12:07:40;9.25;;;2.20;;
48516;SDS011;34310;51.904;4.256;2022-08-19T12:10:09;13.73;;;2.67;;
48516;SDS011;34310;51.904;4.256;2022-08-19T12:12:37;11.68;;;2.25;;
48516;SDS011;34310;51.904;4.256;2022-08-19T12:15:19;11.57;;;2.13;;
48516;SDS011;34310;51.904;4.256;2022-08-19T12:17:47;6.70;;;1.58;;
48516;SDS011;34310;51.904;4.256;2022-08-19T12:20:14;4.45;;;1.50;;
48516;SDS011;34310;51.904;4.256;2022-08-19T12:22:43;6.03;;;1.50;;
48516;SDS011;34310;51.904;4.256;2022-08-19T12:25:10;5.70;;;1.52;;
48516;SDS011;34310;51.904;4.256;2022-08-19T12:27:38;5.28;;;1.50;;
48516;SDS011;34310;51.904;4.256;2022-08-19T12:30:12;8.20;;;1.67;;
48516;SDS011;34310;51.904;4.256;2022-08-19T12:32:40;4.28;;;1.40;;
48516;SDS011;34310;51.904;4.256;2022-08-19T12:35:07;7.43;;;1.67;;
48516;SDS011;34310;51.904;4.256;2022-08-19T12:37:36;7.13;;;1.67;;
48516;SDS011;34310;51.904;4.256;2022-08-19T12:40:05;4.25;;;1.27;;
48516;SDS011;34310;51.904;4.256;2022-08-19T12:42:33;7.70;;;1.65;;
48516;SDS011;34310;51.904;4.256;2022-08-19T12:45:00;5.78;;;1.30;;
48516;SDS011;34310;51.904;4.256;2022-08-19T12:47:31;5.93;;;1.70;;
48516;SDS011;34310;51.904;4.256;2022-08-19T12:50:03;8.10;;;1.80;;
48516;SDS011;34310;51.904;4.256;2022-08-19T12:52:32;9.10;;;1.60;;
48516;SDS011;34310;51.904;4.256;2022-08-19T12:55:03;6.70;;;1.40;;
48516;SDS011;34310;51.904;4.256;2022-08-19T12:57:32;6.93;;;1.33;;
48516;SDS011;34310;51.904;4.256;2022-08-19T13:00:12;10.52;;;1.63;;
48516;SDS011;34310;51.904;4.256;2022-08-19T13:02:45;6.78;;;1.40;;
48516;SDS011;34310;51.904;4.256;2022-08-19T13:05:19;6.72;;;2.00;;
48516;SDS011;34310;51.904;4.256;2022-08-19T13:07:49;10.23;;;1.60;;
48516;SDS011;34310;51.904;4.256;2022-08-19T13:10:19;7.80;;;1.40;;
48516;SDS011;34310;51.904;4.256;2022-08-19T13:12:49;5.60;;;1.48;;
48516;SDS011;34310;51.904;4.256;2022-08-19T13:15:18;9.98;;;1.88;;
48516;SDS011;34310;51.904;4.256;2022-08-19T13:17:50;9.38;;;1.80;;
48516;SDS011;34310;51.904;4.256;2022-08-19T13:20:19;5.47;;;1.48;;
48516;SDS011;34310;51.904;4.256;2022-08-19T13:22:47;8.50;;;1.65;;
48516;SDS011;34310;51.904;4.256;2022-08-19T13:25:15;7.63;;;1.58;;
48516;SDS011;34310;51.904;4.256;2022-08-19T13:27:45;12.43;;;2.08;;
48516;SDS011;34310;51.904;4.256;2022-08-19T13:30:14;5.05;;;1.30;;
48516;SDS011;34310;51.904;4.256;2022-08-19T13:33:02;6.38;;;1.50;;
48516;SDS011;34310;51.904;4.256;2022-08-19T13:38:10;6.93;;;1.40;;
48516;SDS011;34310;51.904;4.256;2022-08-19T13:40:39;3.47;;;1.17;;
48516;SDS011;34310;51.904;4.256;2022-08-19T13:43:07;6.78;;;1.08;;
48516;SDS011;34310;51.904;4.256;2022-08-19T13:45:52;8.35;;;1.40;;
48516;SDS011;34310;51.904;4.256;2022-08-19T13:48:23;8.25;;;1.30;;
48516;SDS011;34310;51.904;4.256;2022-08-19T13:50:53;14.85;;;1.90;;
48516;SDS011;34310;51.904;4.256;2022-08-19T13:53:20;10.02;;;1.90;;
48516;SDS011;34310;51.904;4.256;2022-08-19T13:55:48;12.13;;;1.80;;
48516;SDS011;34310;51.904;4.256;2022-08-19T13:58:17;15.68;;;1.75;;
48516;SDS011;34310;51.904;4.256;2022-08-19T14:00:45;11.63;;;2.10;;
48516;SDS011;34310;51.904;4.256;2022-08-19T14:03:13;11.07;;;1.80;;
48516;SDS011;34310;51.904;4.256;2022-08-19T14:05:40;8.95;;;1.70;;
48516;SDS011;34310;51.904;4.256;2022-08-19T14:08:08;12.18;;;1.85;;
48516;SDS011;34310;51.904;4.256;2022-08-19T14:10:35;14.23;;;2.00;;
48516;SDS011;34310;51.904;4.256;2022-08-19T14:13:03;10.95;;;2.13;;
48516;SDS011;34310;51.904;4.256;2022-08-19T14:15:30;13.02;;;2.15;;
48516;SDS011;34310;51.904;4.256;2022-08-19T14:17:58;8.13;;;2.00;;
48516;SDS011;34310;51.904;4.256;2022-08-19T14:20:25;8.52;;;1.88;;
48516;SDS011;34310;51.904;4.256;2022-08-19T14:22:53;8.98;;;1.98;;
48516;SDS011;34310;51.904;4.256;2022-08-19T14:25:22;12.15;;;2.72;;
48516;SDS011;34310;51.904;4.256;2022-08-19T14:27:51;13.00;;;2.35;;
48516;SDS011;34310;51.904;4.256;2022-08-19T14:30:20;13.80;;;2.58;;
48516;SDS011;34310;51.904;4.256;2022-08-19T14:32:59;11.60;;;2.63;;
48516;SDS011;34310;51.904;4.256;2022-08-19T14:35:28;10.40;;;2.30;;
48516;SDS011;34310;51.904;4.256;2022-08-19T14:37:56;10.93;;;2.53;;
48516;SDS011;34310;51.904;4.256;2022-08-19T14:40:25;12.48;;;2.38;;
48516;SDS011;34310;51.904;4.256;2022-08-19T14:42:55;20.65;;;3.20;;
48516;SDS011;34310;51.904;4.256;2022-08-19T14:45:31;16.15;;;2.45;;
48516;SDS011;34310;51.904;4.256;2022-08-19T14:48:02;14.02;;;2.25;;
48516;SDS011;34310;51.904;4.256;2022-08-19T14:50:30;13.05;;;2.70;;
48516;SDS011;34310;51.904;4.256;2022-08-19T14:52:59;13.68;;;2.33;;
48516;SDS011;34310;51.904;4.256;2022-08-19T14:55:39;8.60;;;2.72;;
48516;SDS011;34310;51.904;4.256;2022-08-19T14:58:08;13.88;;;2.45;;
48516;SDS011;34310;51.904;4.256;2022-08-19T15:00:56;10.90;;;2.17;;
48516;SDS011;34310;51.904;4.256;2022-08-19T15:03:25;11.90;;;2.05;;
48516;SDS011;34310;51.904;4.256;2022-08-19T15:05:53;11.88;;;2.15;;
48516;SDS011;34310;51.904;4.256;2022-08-19T15:08:23;89.95;;;4.93;;
48516;SDS011;34310;51.904;4.256;2022-08-19T15:10:52;109.55;;;6.65;;
48516;SDS011;34310;51.904;4.256;2022-08-19T15:13:20;121.25;;;7.57;;
48516;SDS011;34310;51.904;4.256;2022-08-19T15:15:48;107.25;;;7.18;;
48516;SDS011;34310;51.904;4.256;2022-08-19T15:18:15;118.00;;;7.28;;
48516;SDS011;34310;51.904;4.256;2022-08-19T15:20:42;99.65;;;6.53;;